Time;durP1;ratioP1;P1;durP2;ratioP2;P2;SDS_P1;SDS_P2;PMS_P1;PMS_P2;Temp;Humidity;BMP_temperature;BMP_pressure;BME280_temperature;BME280_humidity;BME280_pressure;Samples;Min_cycle;Max_cycle;Signal;HPM_P1;HPM_P2
2023/06/19 00:00:17;;;;;;;2.45;2.25;;;23.10;38.80;;;;;;5048980;28;20544;-71
2023/06/19 00:02:44;;;;;;;1.67;1.58;;;23.10;39.00;;;;;;5032644;28;20463;-71
2023/06/19 00:05:12;;;;;;;1.75;1.65;;;23.00;39.60;;;;;;5035943;28;20525;-71
2023/06/19 00:07:42;;;;;;;2.20;1.70;;;22.90;39.10;;;;;;5033094;28;20663;-72
2023/06/19 00:10:08;;;;;;;1.65;1.60;;;22.90;39.60;;;;;;5024588;28;21048;-71
2023/06/19 00:12:36;;;;;;;1.95;1.85;;;22.80;39.30;;;;;;5036059;28;20460;-72
2023/06/19 00:15:03;;;;;;;1.83;1.73;;;22.80;40.20;;;;;;5031750;28;20445;-71
2023/06/19 00:17:30;;;;;;;1.60;1.50;;;22.70;40.40;;;;;;5031348;28;20904;-71
2023/06/19 00:19:57;;;;;;;2.40;2.30;;;22.60;40.00;;;;;;5031413;28;20529;-72
2023/06/19 00:22:25;;;;;;;3.15;1.98;;;22.60;41.40;;;;;;5032422;28;20441;-71
2023/06/19 00:24:52;;;;;;;1.70;1.60;;;22.50;40.80;;;;;;5030400;28;20525;-71
2023/06/19 00:27:19;;;;;;;2.25;1.90;;;22.50;41.20;;;;;;5032734;28;20461;-71
2023/06/19 00:29:46;;;;;;;3.20;1.90;;;22.40;41.10;;;;;;5033363;28;20425;-71
2023/06/19 00:32:12;;;;;;;3.50;1.83;;;22.30;41.90;;;;;;5031655;28;20886;-71
2023/06/19 00:34:42;;;;;;;1.73;1.70;;;22.20;41.20;;;;;;5032067;28;20512;-71
2023/06/19 00:37:12;;;;;;;2.90;2.22;;;22.10;41.90;;;;;;5031364;28;20637;-71
2023/06/19 00:39:40;;;;;;;2.75;2.10;;;21.90;41.00;;;;;;5033263;28;20447;-71
2023/06/19 00:42:10;;;;;;;2.65;2.45;;;21.80;41.90;;;;;;5035108;28;20563;-71
2023/06/19 00:44:37;;;;;;;1.67;1.57;;;21.80;44.20;;;;;;5030568;28;20438;-71
2023/06/19 00:47:04;;;;;;;1.70;1.60;;;21.60;45.40;;;;;;5029494;28;20524;-70
2023/06/19 00:49:31;;;;;;;1.48;1.38;;;21.50;46.70;;;;;;5033757;28;20442;-71
2023/06/19 00:51:58;;;;;;;1.77;1.67;;;21.40;49.00;;;;;;5029899;28;20861;-71
2023/06/19 00:54:25;;;;;;;1.80;1.50;;;21.40;50.20;;;;;;5032840;28;20429;-71
2023/06/19 00:56:53;;;;;;;1.55;1.45;;;21.40;50.40;;;;;;5036331;28;20491;-71
2023/06/19 00:59:20;;;;;;;1.92;1.73;;;21.40;52.10;;;;;;5032940;28;20433;-71
2023/06/19 01:01:47;;;;;;;2.08;1.75;;;21.40;53.10;;;;;;5065312;28;20482;-71
2023/06/19 01:04:14;;;;;;;1.53;1.53;;;21.30;53.30;;;;;;5031241;28;20845;-71
2023/06/19 01:06:59;;;;;;;1.87;1.77;;;21.20;54.10;;;;;;5029185;28;20436;-71
2023/06/19 01:09:30;;;;;;;1.75;1.60;;;21.10;56.20;;;;;;5030267;28;20434;-71
2023/06/19 01:12:08;;;;;;;1.63;1.52;;;21.00;58.20;;;;;;5036261;28;20856;-71
2023/06/19 01:14:59;;;;;;;1.73;1.63;;;21.00;58.90;;;;;;5031050;28;20429;-71
2023/06/19 01:17:28;;;;;;;1.52;1.42;;;21.00;61.30;;;;;;5030727;28;20430;-71
2023/06/19 01:19:58;;;;;;;2.15;1.58;;;21.00;65.50;;;;;;5032212;28;21005;-71
2023/06/19 01:22:28;;;;;;;1.70;1.37;;;21.10;68.40;;;;;;5032115;28;20437;-71
2023/06/19 01:24:55;;;;;;;1.67;1.57;;;21.20;70.70;;;;;;5033293;28;20490;-71
2023/06/19 01:27:25;;;;;;;1.48;1.45;;;21.20;72.40;;;;;;5032866;28;20433;-71
2023/06/19 01:29:53;;;;;;;2.00;1.45;;;21.30;74.50;;;;;;5037319;28;20483;-71
2023/06/19 01:32:45;;;;;;;1.25;1.25;;;21.30;76.40;;;;;;5030638;28;20483;-71
2023/06/19 01:35:17;;;;;;;1.58;1.48;;;21.20;76.00;;;;;;5032724;28;20978;-71
2023/06/19 01:37:48;;;;;;;1.60;1.48;;;21.20;92.20;;;;;;5029864;28;20439;-71
2023/06/19 01:40:17;;;;;;;1.98;1.80;;;21.10;81.20;;;;;;5031565;28;20919;-71
2023/06/19 01:42:44;;;;;;;1.83;1.73;;;21.00;85.10;;;;;;5031401;28;20444;-70
2023/06/19 01:45:11;;;;;;;1.30;1.20;;;20.90;90.20;;;;;;5031526;28;20499;-70
2023/06/19 01:47:37;;;;;;;5.90;1.52;;;20.80;92.00;;;;;;5031739;28;20436;-71
2023/06/19 01:50:05;;;;;;;1.77;1.35;;;20.60;95.60;;;;;;5031636;28;20436;-71
2023/06/19 01:52:32;;;;;;;2.65;1.27;;;20.40;99.90;;;;;;5030631;28;20886;-71
2023/06/19 01:54:59;;;;;;;1.80;1.70;;;20.20;99.90;;;;;;5035897;28;20520;-71
2023/06/19 01:57:26;;;;;;;1.60;1.50;;;20.00;99.90;;;;;;5033457;28;20799;-70
2023/06/19 01:59:53;;;;;;;1.48;1.38;;;19.90;99.90;;;;;;5069252;28;20962;-71
2023/06/19 02:02:19;;;;;;;1.57;1.53;;;19.80;99.90;;;;;;5037529;28;20449;-71
2023/06/19 02:04:46;;;;;;;1.65;1.50;;;19.70;99.90;;;;;;5035046;28;20885;-71
2023/06/19 02:07:13;;;;;;;1.42;1.33;;;19.60;99.90;;;;;;5038613;28;20507;-71
2023/06/19 02:09:41;;;;;;;2.38;1.80;;;19.60;99.90;;;;;;5040209;28;20528;-71
2023/06/19 02:12:08;;;;;;;1.45;1.33;;;19.50;99.90;;;;;;5040584;28;20912;-71
2023/06/19 02:14:35;;;;;;;2.13;1.80;;;19.50;99.90;;;;;;5035039;28;20795;-71
2023/06/19 02:17:02;;;;;;;2.10;1.67;;;19.50;99.90;;;;;;5035017;28;20429;-71
2023/06/19 02:19:28;;;;;;;1.42;1.42;;;19.50;99.90;;;;;;5035775;28;20509;-71
2023/06/19 02:21:55;;;;;;;2.42;1.60;;;19.50;99.90;;;;;;5035518;28;20457;-71
2023/06/19 02:24:22;;;;;;;2.03;1.92;;;19.40;99.90;;;;;;5037258;28;20479;-70
2023/06/19 02:26:48;;;;;;;1.52;1.42;;;19.30;99.90;;;;;;5067167;28;20425;-71
2023/06/19 02:29:15;;;;;;;1.60;1.50;;;19.20;99.90;;;;;;5034257;28;20479;-71
2023/06/19 02:31:42;;;;;;;2.03;1.83;;;19.20;99.90;;;;;;5034684;28;20433;-71
2023/06/19 02:34:09;;;;;;;1.77;1.67;;;19.00;99.90;;;;;;5033121;28;20425;-70
2023/06/19 02:36:35;;;;;;;1.73;1.63;;;18.90;99.90;;;;;;5064073;28;22089;-70
2023/06/19 02:39:06;;;;;;;1.88;1.75;;;18.80;99.90;;;;;;5038420;28;20499;-70
2023/06/19 02:41:33;;;;;;;1.90;1.80;;;18.80;99.90;;;;;;5034788;28;20950;-70
2023/06/19 02:43:59;;;;;;;2.73;1.70;;;18.70;99.90;;;;;;5065804;28;20512;-71
2023/06/19 02:46:26;;;;;;;2.10;1.60;;;18.50;1.00;;;;;;5033133;28;20808;-71
2023/06/19 02:48:56;;;;;;;2.97;1.83;;;18.40;1.00;;;;;;5037106;28;20958;-70
2023/06/19 02:51:22;;;;;;;1.92;1.77;;;18.40;1.00;;;;;;5034766;28;20433;-71
2023/06/19 02:53:49;;;;;;;1.70;1.50;;;18.30;1.00;;;;;;5033795;28;20439;-70
2023/06/19 02:56:16;;;;;;;2.40;1.83;;;18.30;1.00;;;;;;5031703;28;21051;-71
2023/06/19 02:58:43;;;;;;;1.73;1.63;;;18.20;1.00;;;;;;5031187;28;20481;-71
2023/06/19 03:01:09;;;;;;;1.63;1.52;;;18.30;1.00;;;;;;5051188;28;20441;-71
2023/06/19 03:03:40;;;;;;;1.67;1.58;;;18.40;1.00;;;;;;5032234;28;20442;-71
2023/06/19 03:06:08;;;;;;;1.60;1.50;;;18.40;1.00;;;;;;5030175;28;20583;-71
2023/06/19 03:08:35;;;;;;;3.20;1.67;;;18.30;1.00;;;;;;5031967;28;20459;-71
2023/06/19 03:11:05;;;;;;;1.52;1.48;;;18.30;1.00;;;;;;5038660;28;20437;-70
2023/06/19 03:13:52;;;;;;;1.70;1.40;;;18.30;1.00;;;;;;5035227;28;20858;-71
2023/06/19 03:16:20;;;;;;;1.60;1.50;;;18.30;1.00;;;;;;5034899;28;20429;-71
2023/06/19 03:18:47;;;;;;;1.38;1.38;;;18.20;1.00;;;;;;5034366;28;20441;-70
2023/06/19 03:21:19;;;;;;;1.48;1.45;;;18.30;1.00;;;;;;5033590;28;20467;-71
2023/06/19 03:23:47;;;;;;;3.40;2.20;;;18.30;1.00;;;;;;5031059;28;20439;-71
2023/06/19 03:26:13;;;;;;;1.27;1.17;;;18.30;1.00;;;;;;5031420;28;21241;-71
2023/06/19 03:28:40;;;;;;;1.30;1.30;;;18.40;51.20;;;;;;5065604;28;20917;-71
2023/06/19 03:31:07;;;;;;;1.60;1.53;;;18.60;1.00;;;;;;5033181;28;20486;-71
2023/06/19 03:33:34;;;;;;;1.30;1.20;;;18.80;1.00;;;;;;5031803;28;20798;-70
2023/06/19 03:36:00;;;;;;;1.90;1.80;;;18.90;1.00;;;;;;5033541;28;20425;-71
2023/06/19 03:38:27;;;;;;;1.40;1.30;;;19.00;1.00;;;;;;5037011;28;20456;-71
2023/06/19 03:40:54;;;;;;;2.53;1.45;;;19.10;1.00;;;;;;5032823;28;20989;-71
2023/06/19 03:43:20;;;;;;;1.77;1.67;;;19.20;1.00;;;;;;5038519;28;21168;-71
2023/06/19 03:45:48;;;;;;;1.10;1.10;;;19.30;1.00;;;;;;5034579;28;20490;-71
2023/06/19 03:48:16;;;;;;;1.70;1.60;;;19.30;1.00;;;;;;5034157;28;20469;-70
2023/06/19 03:50:43;;;;;;;1.83;1.70;;;19.40;1.00;;;;;;5031453;28;20433;-71
2023/06/19 03:53:10;;;;;;;1.48;1.33;;;19.40;99.90;;;;;;5033451;28;20810;-70
2023/06/19 03:55:39;;;;;;;3.78;1.63;;;19.50;99.90;;;;;;5032996;28;20425;-71
2023/06/19 03:58:08;;;;;;;1.33;1.23;;;19.50;99.90;;;;;;5032322;28;20444;-71
2023/06/19 04:00:34;;;;;;;2.20;1.40;;;19.50;99.90;;;;;;5034795;28;20559;-71
2023/06/19 04:03:01;;;;;;;0.98;0.98;;;19.60;99.90;;;;;;5030986;28;20512;-71
2023/06/19 04:05:28;;;;;;;2.00;1.80;;;19.60;1.00;;;;;;5033170;28;20974;-71
2023/06/19 04:07:55;;;;;;;1.95;1.35;;;19.60;1.00;;;;;;5033729;28;20439;-71
2023/06/19 04:10:22;;;;;;;1.73;1.63;;;19.60;1.00;;;;;;5035634;28;20437;-71
2023/06/19 04:12:49;;;;;;;2.57;1.67;;;19.60;1.00;;;;;;5037553;28;20482;-71
2023/06/19 04:15:16;;;;;;;1.30;1.30;;;19.50;1.00;;;;;;5031668;28;20443;-71
2023/06/19 04:17:42;;;;;;;1.50;1.40;;;19.50;1.00;;;;;;5035900;28;20437;-71
2023/06/19 04:20:10;;;;;;;2.13;1.30;;;19.50;1.00;;;;;;5031380;28;20502;-71
2023/06/19 04:22:39;;;;;;;2.08;1.50;;;19.60;1.00;;;;;;5033915;28;20522;-71
2023/06/19 04:25:07;;;;;;;1.58;1.48;;;19.70;1.00;;;;;;5034907;28;20447;-71
2023/06/19 04:27:34;;;;;;;1.35;1.30;;;19.90;1.00;;;;;;5036147;28;20549;-71
2023/06/19 04:30:04;;;;;;;1.37;1.33;;;20.10;99.90;;;;;;5039459;28;21169;-71
2023/06/19 04:32:31;;;;;;;1.40;1.30;;;20.30;99.90;;;;;;5026704;28;20514;-71
2023/06/19 04:34:58;;;;;;;1.20;1.10;;;20.50;99.90;;;;;;5029624;28;20843;-71
2023/06/19 04:37:28;;;;;;;1.20;1.10;;;20.70;99.90;;;;;;5030229;28;20421;-71
2023/06/19 04:39:56;;;;;;;0.90;0.90;;;20.90;99.90;;;;;;5030032;28;20547;-71
2023/06/19 04:42:23;;;;;;;1.25;1.17;;;21.00;99.90;;;;;;5031007;28;20529;-71
2023/06/19 04:44:49;;;;;;;1.02;0.82;;;21.20;99.90;;;;;;5029149;28;20431;-71
2023/06/19 04:47:18;;;;;;;0.85;0.85;;;21.50;99.90;;;;;;5029960;28;20469;-72
2023/06/19 04:49:46;;;;;;;1.13;0.90;;;22.10;99.90;;;;;;5027999;28;20436;-71
2023/06/19 04:52:13;;;;;;;0.82;0.82;;;22.70;99.90;;;;;;5028590;28;20440;-71
2023/06/19 04:54:40;;;;;;;0.70;0.70;;;23.00;99.90;;;;;;5027195;28;20452;-71
2023/06/19 04:57:07;;;;;;;0.80;0.80;;;23.40;99.90;;;;;;5031660;28;20453;-71
2023/06/19 04:59:33;;;;;;;0.80;0.80;;;23.80;99.90;;;;;;5030065;28;20780;-71
2023/06/19 05:02:07;;;;;;;0.50;0.50;;;24.10;99.90;;;;;;5032120;28;20425;-71
2023/06/19 05:04:34;;;;;;;0.80;0.80;;;24.90;99.90;;;;;;5029764;28;20648;-72
2023/06/19 05:07:02;;;;;;;0.70;0.70;;;25.80;99.90;;;;;;5062836;28;20448;-71
2023/06/19 05:09:29;;;;;;;2.10;0.80;;;26.50;99.90;;;;;;5031081;28;20966;-71
2023/06/19 05:11:57;;;;;;;0.75;0.75;;;26.80;99.90;;;;;;5036792;28;20666;-71
2023/06/19 05:14:24;;;;;;;0.75;0.75;;;26.60;99.90;;;;;;5031413;28;20433;-72
2023/06/19 05:16:50;;;;;;;0.77;0.70;;;26.40;99.90;;;;;;5032105;28;20785;-72
2023/06/19 05:19:17;;;;;;;2.30;0.90;;;26.30;99.60;;;;;;5031188;28;20966;-72
2023/06/19 05:21:44;;;;;;;1.60;0.90;;;26.50;98.60;;;;;;5029017;28;20998;-72
2023/06/19 05:24:10;;;;;;;0.90;0.90;;;26.60;98.50;;;;;;5029644;28;20539;-72
2023/06/19 05:26:37;;;;;;;0.82;0.82;;;26.60;97.10;;;;;;5028791;28;20429;-72
2023/06/19 05:29:08;;;;;;;0.85;0.85;;;26.70;96.80;;;;;;5032197;28;20439;-72
2023/06/19 05:31:35;;;;;;;0.77;0.70;;;26.80;97.10;;;;;;5034799;28;20437;-72
2023/06/19 05:34:02;;;;;;;0.70;0.70;;;26.90;96.60;;;;;;5038440;28;20439;-71
2023/06/19 05:36:31;;;;;;;0.95;0.90;;;26.90;97.40;;;;;;5035618;28;20994;-72
2023/06/19 05:38:58;;;;;;;0.60;0.60;;;27.00;96.60;;;;;;5037619;28;20479;-72
2023/06/19 05:41:24;;;;;;;0.70;0.70;;;26.60;95.30;;;;;;5040664;28;20426;-72
2023/06/19 05:43:51;;;;;;;0.73;0.73;;;26.90;99.90;;;;;;5035717;28;20631;-72
2023/06/19 05:46:18;;;;;;;0.90;0.90;;;27.00;96.50;;;;;;5036649;28;20433;-72
2023/06/19 05:48:47;;;;;;;0.80;0.80;;;27.00;95.80;;;;;;5036773;28;20615;-72
2023/06/19 05:51:14;;;;;;;0.80;0.80;;;27.20;96.60;;;;;;5035798;28;20927;-72
2023/06/19 05:53:41;;;;;;;1.20;0.80;;;26.90;96.10;;;;;;5036568;28;20768;-72
2023/06/19 05:56:07;;;;;;;0.80;0.80;;;26.00;93.80;;;;;;5038334;28;20433;-72
2023/06/19 05:58:34;;;;;;;0.77;0.77;;;25.60;94.80;;;;;;5038289;28;20429;-72
2023/06/19 06:01:02;;;;;;;0.60;0.60;;;25.40;95.90;;;;;;5035421;28;20436;-72
2023/06/19 06:03:31;;;;;;;0.98;0.93;;;25.40;97.70;;;;;;5070597;28;20880;-71
2023/06/19 06:06:03;;;;;;;0.60;0.60;;;25.70;99.90;;;;;;5039285;28;20466;-72
2023/06/19 06:08:32;;;;;;;0.65;0.65;;;26.10;99.90;;;;;;5036628;28;20435;-71
2023/06/19 06:10:59;;;;;;;0.95;0.70;;;26.70;99.90;;;;;;5040141;28;20779;-72
2023/06/19 06:13:25;;;;;;;0.60;0.60;;;26.90;99.90;;;;;;5034078;28;20455;-72
2023/06/19 06:15:52;;;;;;;0.80;0.80;;;26.70;99.00;;;;;;5070052;28;21211;-72
2023/06/19 06:18:19;;;;;;;0.73;0.73;;;26.50;98.70;;;;;;5042168;28;20528;-72
2023/06/19 06:20:46;;;;;;;0.80;0.80;;;26.50;99.20;;;;;;5042839;28;20472;-72
2023/06/19 06:23:13;;;;;;;0.60;0.60;;;27.40;99.90;;;;;;5041338;28;20447;-72
2023/06/19 06:25:40;;;;;;;0.85;0.60;;;27.90;99.90;;;;;;5039827;28;20435;-72
2023/06/19 06:28:08;;;;;;;1.10;1.05;;;28.10;99.10;;;;;;5039851;28;20804;-72
2023/06/19 06:30:34;;;;;;;0.50;0.50;;;27.90;97.60;;;;;;5042306;28;20754;-72
2023/06/19 06:33:01;;;;;;;0.70;0.70;;;27.50;96.00;;;;;;5039729;28;20547;-72
2023/06/19 06:35:30;;;;;;;0.60;0.60;;;27.30;95.80;;;;;;5040598;28;20776;-72
2023/06/19 06:37:57;;;;;;;0.77;0.77;;;27.30;96.30;;;;;;5073815;28;20603;-72
2023/06/19 06:40:24;;;;;;;0.70;0.70;;;27.70;97.50;;;;;;5039384;28;20527;-72
2023/06/19 06:42:51;;;;;;;0.70;0.70;;;28.20;97.90;;;;;;5039032;28;20437;-72
2023/06/19 06:45:18;;;;;;;0.52;0.52;;;29.30;99.90;;;;;;5042207;28;20439;-72
2023/06/19 06:47:44;;;;;;;1.10;0.80;;;30.20;99.90;;;;;;5042023;28;20562;-73
2023/06/19 06:50:11;;;;;;;0.50;0.50;;;30.70;99.70;;;;;;5041174;28;20444;-73
2023/06/19 06:52:38;;;;;;;1.67;1.00;;;30.60;98.00;;;;;;5041163;28;20536;-72
2023/06/19 06:55:07;;;;;;;0.80;0.80;;;30.10;95.90;;;;;;5040998;28;20425;-72
2023/06/19 06:57:36;;;;;;;1.08;1.00;;;29.50;94.40;;;;;;5040393;28;20572;-72
2023/06/19 07:00:06;;;;;;;0.80;0.80;;;29.90;95.20;;;;;;5040183;28;20512;-72
2023/06/19 07:02:34;;;;;;;0.60;0.60;;;29.40;93.60;;;;;;5035070;28;20473;-72
2023/06/19 07:05:00;;;;;;;0.70;0.70;;;29.70;94.20;;;;;;5025104;28;20434;-72
2023/06/19 07:07:27;;;;;;;1.35;1.00;;;29.70;94.40;;;;;;5039405;28;20447;-72
2023/06/19 07:09:54;;;;;;;0.80;0.80;;;30.00;95.00;;;;;;5039555;28;20433;-72
2023/06/19 07:12:20;;;;;;;1.35;0.85;;;30.20;94.80;;;;;;5042200;28;20734;-72
2023/06/19 07:14:48;;;;;;;0.70;0.70;;;30.50;95.00;;;;;;5037478;28;20526;-72
2023/06/19 07:17:14;;;;;;;0.70;0.70;;;30.10;94.20;;;;;;5027378;28;20459;-71
2023/06/19 07:19:45;;;;;;;0.52;0.52;;;30.00;93.20;;;;;;5040645;28;20475;-72
2023/06/19 07:22:13;;;;;;;0.75;0.75;;;29.70;93.00;;;;;;5036687;28;20441;-72
2023/06/19 07:24:42;;;;;;;0.90;0.90;;;29.50;92.30;;;;;;5035336;28;21008;-72
2023/06/19 07:27:12;;;;;;;0.67;0.67;;;29.40;91.80;;;;;;5036221;28;20572;-71
2023/06/19 07:29:39;;;;;;;0.85;0.85;;;29.10;91.70;;;;;;5039070;28;20499;-72
2023/06/19 07:32:06;;;;;;;0.75;0.70;;;29.00;91.60;;;;;;5039176;28;20524;-72
2023/06/19 07:34:33;;;;;;;0.80;0.80;;;29.00;92.10;;;;;;5037988;28;20500;-72
2023/06/19 07:37:00;;;;;;;0.70;0.70;;;29.20;92.30;;;;;;5040185;28;20421;-72
2023/06/19 07:39:26;;;;;;;0.90;0.70;;;29.40;93.30;;;;;;5040948;28;20429;-73
2023/06/19 07:41:53;;;;;;;0.70;0.70;;;29.50;93.20;;;;;;5042243;28;20484;-73
2023/06/19 07:44:20;;;;;;;0.90;0.90;;;29.50;96.90;;;;;;5038159;28;20519;-73
2023/06/19 07:46:49;;;;;;;2.30;0.80;;;30.20;94.30;;;;;;5039852;28;20421;-72
2023/06/19 07:49:18;;;;;;;0.95;0.85;;;30.60;95.00;;;;;;5040988;28;20443;-72
2023/06/19 07:51:44;;;;;;;0.70;0.70;;;30.70;94.90;;;;;;5039541;28;20433;-71
2023/06/19 07:54:17;;;;;;;0.82;0.82;;;30.40;93.70;;;;;;5043156;28;20752;-72
2023/06/19 07:56:43;;;;;;;1.00;1.00;;;30.10;92.90;;;;;;5038795;28;20871;-73
2023/06/19 07:59:11;;;;;;;0.68;0.50;;;29.60;92.00;;;;;;5036921;28;21080;-72
2023/06/19 08:01:40;;;;;;;0.70;0.70;;;29.70;92.10;;;;;;5039152;28;20509;-71
2023/06/19 08:04:07;;;;;;;1.20;0.80;;;29.90;92.70;;;;;;5037490;28;20510;-72
2023/06/19 08:06:34;;;;;;;1.05;0.95;;;30.20;93.60;;;;;;5033556;28;20617;-72
2023/06/19 08:09:01;;;;;;;1.10;1.10;;;30.10;93.30;;;;;;5040959;28;20494;-71
2023/06/19 08:11:28;;;;;;;0.70;0.70;;;29.60;91.80;;;;;;5040677;28;20475;-72
2023/06/19 08:13:55;;;;;;;0.93;0.90;;;29.70;92.00;;;;;;5035488;28;20437;-71
2023/06/19 08:16:25;;;;;;;1.30;1.27;;;29.50;91.80;;;;;;5038888;28;20425;-72
2023/06/19 08:18:52;;;;;;;0.98;0.90;;;29.90;93.00;;;;;;5039593;28;20855;-72
2023/06/19 08:21:21;;;;;;;0.70;0.70;;;30.60;95.00;;;;;;5039962;28;20441;-72
2023/06/19 08:23:48;;;;;;;0.73;0.73;;;31.40;96.00;;;;;;5039188;28;20990;-72
2023/06/19 08:26:15;;;;;;;1.30;1.20;;;31.50;95.90;;;;;;5037834;28;20460;-73
2023/06/19 08:28:42;;;;;;;0.85;0.85;;;31.30;94.60;;;;;;5040599;28;20433;-72
2023/06/19 08:31:09;;;;;;;0.65;0.65;;;30.90;93.50;;;;;;5039312;28;20429;-72
2023/06/19 08:33:36;;;;;;;0.80;0.80;;;31.30;94.40;;;;;;5039638;28;20433;-72
2023/06/19 08:36:03;;;;;;;0.95;0.95;;;31.50;95.00;;;;;;5035304;28;20517;-72
2023/06/19 08:38:32;;;;;;;0.85;0.85;;;31.70;95.00;;;;;;5035131;28;20948;-73
2023/06/19 08:40:59;;;;;;;0.98;0.98;;;32.30;95.90;;;;;;5039941;28;21110;-72
2023/06/19 08:43:26;;;;;;;0.90;0.90;;;31.90;94.70;;;;;;5039949;28;20432;-71
2023/06/19 08:46:08;;;;;;;1.20;1.10;;;32.10;94.60;;;;;;5036552;28;21059;-71
2023/06/19 08:48:36;;;;;;;1.00;1.00;;;31.50;93.00;;;;;;5039516;28;20441;-72
2023/06/19 08:51:04;;;;;;;0.80;0.80;;;30.80;91.30;;;;;;5041931;28;20429;-71
2023/06/19 08:53:35;;;;;;;0.70;0.70;;;29.90;88.60;;;;;;5037579;28;20433;-71
2023/06/19 08:56:04;;;;;;;0.90;0.90;;;30.50;91.10;;;;;;5034573;28;20437;-71
2023/06/19 08:58:33;;;;;;;0.82;0.82;;;30.50;90.90;;;;;;5039482;28;20439;-71
2023/06/19 09:01:00;;;;;;;0.80;0.80;;;30.40;91.70;;;;;;5038901;28;20854;-71
2023/06/19 09:03:26;;;;;;;0.88;0.88;;;30.40;90.80;;;;;;5042984;28;20443;-71
2023/06/19 09:05:53;;;;;;;0.65;0.65;;;30.40;91.00;;;;;;5043612;28;20432;-71
2023/06/19 09:08:22;;;;;;;0.73;0.73;;;30.70;91.30;;;;;;5041537;28;20790;-71
2023/06/19 09:11:00;;;;;;;0.70;0.70;;;30.80;91.80;;;;;;5043685;28;20425;-71
2023/06/19 09:13:30;;;;;;;0.63;0.63;;;30.50;91.10;;;;;;5037657;28;20432;-71
2023/06/19 09:15:59;;;;;;;0.70;0.70;;;30.80;91.60;;;;;;5041905;28;20532;-72
2023/06/19 09:18:43;;;;;;;1.00;0.90;;;29.70;89.20;;;;;;5035984;28;20427;-71
2023/06/19 09:21:18;;;;;;;0.88;0.88;;;28.70;83.10;;;;;;5042047;28;20455;-73
2023/06/19 09:23:46;;;;;;;1.63;1.15;;;29.50;88.60;;;;;;5042302;28;20915;-73
2023/06/19 09:26:20;;;;;;;0.75;0.75;;;29.20;87.40;;;;;;5043953;28;20909;-73
2023/06/19 09:28:50;;;;;;;1.02;0.88;;;29.30;89.10;;;;;;5041052;28;20946;-73
2023/06/19 09:31:16;;;;;;;0.90;0.90;;;29.90;97.60;;;;;;5042891;28;20489;-73
2023/06/19 09:33:43;;;;;;;1.20;1.20;;;30.70;92.70;;;;;;5043146;28;21107;-73
2023/06/19 09:36:10;;;;;;;1.70;0.80;;;31.30;94.10;;;;;;5042026;28;20954;-74
2023/06/19 09:38:39;;;;;;;0.65;0.65;;;32.30;95.90;;;;;;5041159;28;20439;-73
2023/06/19 09:41:07;;;;;;;0.80;0.80;;;32.60;95.20;;;;;;5041677;28;21109;-73
2023/06/19 09:43:39;;;;;;;0.80;0.80;;;32.00;93.70;;;;;;5040435;28;20991;-73
2023/06/19 09:46:09;;;;;;;0.75;0.75;;;31.80;93.10;;;;;;5040980;28;20430;-73
2023/06/19 09:48:45;;;;;;;0.90;0.75;;;31.50;92.60;;;;;;5040166;28;20492;-73
2023/06/19 09:51:20;;;;;;;0.80;0.80;;;31.10;91.50;;;;;;5041797;28;20499;-73
2023/06/19 09:53:49;;;;;;;0.88;0.88;;;31.00;91.30;;;;;;5040299;28;20433;-73
2023/06/19 09:56:21;;;;;;;1.13;1.13;;;31.50;92.60;;;;;;5041193;28;20516;-73
2023/06/19 09:58:50;;;;;;;0.68;0.68;;;31.30;92.00;;;;;;5042968;28;21149;-73
2023/06/19 10:01:18;;;;;;;0.77;0.77;;;30.80;90.60;;;;;;5041496;28;20461;-72
2023/06/19 10:03:46;;;;;;;0.93;0.93;;;30.70;90.60;;;;;;5042359;28;20460;-72
2023/06/19 10:06:16;;;;;;;0.80;0.80;;;30.40;90.30;;;;;;5042884;28;20437;-72
2023/06/19 10:08:45;;;;;;;1.13;1.13;;;30.50;89.70;;;;;;5042651;28;20460;-72
2023/06/19 10:11:13;;;;;;;1.00;0.90;;;30.60;90.00;;;;;;5044256;28;20464;-72
2023/06/19 10:13:41;;;;;;;1.38;1.10;;;30.40;88.80;;;;;;5041836;28;20466;-69
2023/06/19 10:16:20;;;;;;;0.63;0.63;;;30.60;89.00;;;;;;5042770;28;20553;-72
2023/06/19 10:18:48;;;;;;;0.70;0.70;;;30.60;89.00;;;;;;5042435;28;20925;-71
2023/06/19 10:21:19;;;;;;;1.02;0.93;;;30.40;88.10;;;;;;5043494;28;20433;-71
2023/06/19 10:23:57;;;;;;;0.70;0.70;;;30.60;88.80;;;;;;5041514;28;20475;-72
2023/06/19 10:27:01;;;;;;;0.80;0.80;;;31.10;91.00;;;;;;5037875;28;20927;-71
2023/06/19 10:29:39;;;;;;;0.88;0.88;;;31.60;91.50;;;;;;5036986;28;20451;-71
2023/06/19 10:32:06;;;;;;;0.80;0.80;;;31.50;91.00;;;;;;5039853;28;20433;-71
2023/06/19 10:34:34;;;;;;;0.65;0.65;;;31.50;90.80;;;;;;5042730;28;20421;-71
2023/06/19 10:37:01;;;;;;;1.00;0.90;;;32.00;93.20;;;;;;5050892;28;20846;-72
2023/06/19 10:39:28;;;;;;;1.05;0.95;;;32.50;93.70;;;;;;5041835;28;20460;-71
2023/06/19 10:41:56;;;;;;;0.75;0.75;;;32.30;93.10;;;;;;5041722;28;20540;-71
2023/06/19 10:44:26;;;;;;;0.70;0.70;;;32.70;93.20;;;;;;5042344;28;20429;-71
2023/06/19 10:46:53;;;;;;;0.82;0.82;;;31.80;90.90;;;;;;5041251;28;20433;-72
2023/06/19 10:49:21;;;;;;;0.90;0.90;;;31.80;90.70;;;;;;5040194;28;21419;-71
2023/06/19 10:51:48;;;;;;;0.90;0.90;;;32.00;91.30;;;;;;5041523;28;20433;-71
2023/06/19 10:54:15;;;;;;;0.70;0.70;;;31.30;89.40;;;;;;5040258;28;20536;-71
2023/06/19 10:56:43;;;;;;;0.82;0.82;;;31.30;89.70;;;;;;5042416;28;20491;-71
2023/06/19 10:59:13;;;;;;;0.65;0.65;;;30.90;86.80;;;;;;5041884;28;20520;-71
2023/06/19 11:01:42;;;;;;;0.73;0.73;;;30.70;85.70;;;;;;5040125;28;20522;-71
2023/06/19 11:04:10;;;;;;;1.70;1.00;;;30.90;88.00;;;;;;5044639;28;20486;-71
2023/06/19 11:06:39;;;;;;;0.70;0.70;;;30.70;86.70;;;;;;5041986;28;20445;-70
2023/06/19 11:09:07;;;;;;;1.13;1.13;;;30.10;84.80;;;;;;5039788;28;20433;-70
2023/06/19 11:11:47;;;;;;;0.80;0.80;;;29.60;81.30;;;;;;5039967;28;20439;-70
2023/06/19 11:14:16;;;;;;;0.90;0.90;;;29.30;79.40;;;;;;5037795;28;20437;-70
2023/06/19 11:16:45;;;;;;;1.38;1.00;;;29.00;79.70;;;;;;5039713;28;20486;-70
2023/06/19 11:19:23;;;;;;;0.82;0.82;;;28.80;78.10;;;;;;5035541;28;21123;-71
2023/06/19 11:21:52;;;;;;;1.00;1.00;;;29.20;79.90;;;;;;5032139;28;20444;-70
2023/06/19 11:24:20;;;;;;;0.70;0.70;;;29.40;81.50;;;;;;5033449;28;20433;-70
2023/06/19 11:26:49;;;;;;;3.00;0.70;;;29.30;81.90;;;;;;5040186;28;20487;-70
2023/06/19 11:29:18;;;;;;;0.80;0.80;;;29.80;83.50;;;;;;5040089;28;20853;-71
2023/06/19 11:31:46;;;;;;;0.55;0.55;;;30.40;86.60;;;;;;5040866;28;20673;-70
2023/06/19 11:34:15;;;;;;;0.70;0.70;;;30.10;94.40;;;;;;5044127;28;20432;-71
2023/06/19 11:36:43;;;;;;;0.90;0.90;;;30.30;85.10;;;;;;5072080;28;20427;-71
2023/06/19 11:39:15;;;;;;;0.63;0.63;;;29.80;82.30;;;;;;5040449;28;20527;-70
2023/06/19 11:41:44;;;;;;;0.77;0.77;;;29.90;82.50;;;;;;5039370;28;20509;-71
2023/06/19 11:44:11;;;;;;;0.75;0.65;;;30.10;83.50;;;;;;5038161;28;20939;-70
2023/06/19 11:46:40;;;;;;;0.60;0.60;;;30.80;87.20;;;;;;5042571;28;20770;-70
2023/06/19 11:49:08;;;;;;;0.70;0.70;;;30.60;86.30;;;;;;5040600;28;20421;-71
2023/06/19 11:51:35;;;;;;;0.88;0.88;;;30.70;87.20;;;;;;5035197;28;20903;-71
2023/06/19 11:54:05;;;;;;;0.60;0.60;;;30.50;85.50;;;;;;5033420;28;20965;-71
2023/06/19 11:56:32;;;;;;;0.70;0.70;;;30.80;87.20;;;;;;5036411;28;20460;-71
2023/06/19 11:58:59;;;;;;;0.80;0.70;;;31.10;88.50;;;;;;5035513;28;20425;-71
2023/06/19 12:01:26;;;;;;;0.70;0.70;;;31.90;90.80;;;;;;5036584;28;20429;-71
2023/06/19 12:03:53;;;;;;;0.70;0.70;;;32.20;91.60;;;;;;5038387;28;20439;-71
2023/06/19 12:06:20;;;;;;;0.50;0.50;;;32.90;92.60;;;;;;5038936;28;20569;-71
2023/06/19 12:08:47;;;;;;;0.73;0.73;;;32.60;91.20;;;;;;5038124;28;20944;-71
2023/06/19 12:11:14;;;;;;;1.48;0.70;;;32.80;91.30;;;;;;5042537;28;20460;-71
2023/06/19 12:13:41;;;;;;;0.60;0.60;;;33.40;92.50;;;;;;5037903;28;20437;-71
2023/06/19 12:16:11;;;;;;;0.67;0.67;;;33.50;93.00;;;;;;5041501;28;20429;-71
2023/06/19 12:18:38;;;;;;;0.60;0.60;;;33.10;91.50;;;;;;5040531;28;20480;-71
2023/06/19 12:21:05;;;;;;;0.80;0.80;;;32.90;90.60;;;;;;5069345;28;20832;-72
2023/06/19 12:23:50;;;;;;;0.50;0.50;;;33.30;91.40;;;;;;5061867;28;20622;-71
2023/06/19 12:26:17;;;;;;;1.80;0.70;;;32.20;88.20;;;;;;5038727;28;20428;-70
2023/06/19 12:28:44;;;;;;;0.90;0.70;;;31.90;85.70;;;;;;5040782;28;20431;-70
2023/06/19 12:31:10;;;;;;;0.93;0.93;;;31.90;85.30;;;;;;5040807;28;20516;-71
2023/06/19 12:33:42;;;;;;;0.73;0.60;;;32.30;88.70;;;;;;5038838;28;20425;-70
2023/06/19 12:36:12;;;;;;;0.60;0.60;;;31.90;85.70;;;;;;5040390;28;20476;-70
2023/06/19 12:38:40;;;;;;;0.70;0.70;;;30.80;79.00;;;;;;5072395;28;20532;-70
2023/06/19 12:41:07;;;;;;;0.70;0.70;;;31.10;79.40;;;;;;5037764;28;20436;-70
2023/06/19 12:43:36;;;;;;;0.60;0.60;;;31.10;80.10;;;;;;5036111;28;20429;-70
2023/06/19 12:46:03;;;;;;;0.60;0.60;;;31.40;81.60;;;;;;5039948;28;20695;-70
2023/06/19 12:48:32;;;;;;;0.60;0.60;;;31.90;84.20;;;;;;5040364;28;20953;-70
2023/06/19 12:50:59;;;;;;;1.50;0.85;;;32.10;84.20;;;;;;5041670;28;20469;-70
2023/06/19 12:53:29;;;;;;;0.68;0.68;;;32.00;84.80;;;;;;5037448;28;20433;-70